sensor_id;sensor_type;location;lat;lon;timestamp;temperature;humidity
73137;DHT22;67767;45.636;11.756;2023-11-21T00:01:18;9.20;84.60
73137;DHT22;67767;45.636;11.756;2023-11-21T00:03:43;9.30;84.70
73137;DHT22;67767;45.636;11.756;2023-11-21T00:06:09;9.30;84.80
73137;DHT22;67767;45.636;11.756;2023-11-21T00:08:36;9.20;84.70
73137;DHT22;67767;45.636;11.756;2023-11-21T00:11:01;9.20;84.80
73137;DHT22;67767;45.636;11.756;2023-11-21T00:13:28;9.20;84.50
73137;DHT22;67767;45.636;11.756;2023-11-21T00:15:53;9.10;84.50
73137;DHT22;67767;45.636;11.756;2023-11-21T00:18:20;9.10;84.70
73137;DHT22;67767;45.636;11.756;2023-11-21T00:20:46;9.20;84.70
73137;DHT22;67767;45.636;11.756;2023-11-21T00:23:11;9.00;85.10
73137;DHT22;67767;45.636;11.756;2023-11-21T00:25:37;9.10;85.00
73137;DHT22;67767;45.636;11.756;2023-11-21T00:28:03;9.30;84.70
73137;DHT22;67767;45.636;11.756;2023-11-21T00:30:29;9.30;84.60
73137;DHT22;67767;45.636;11.756;2023-11-21T00:32:56;9.30;84.50
73137;DHT22;67767;45.636;11.756;2023-11-21T00:35:22;9.30;84.90
73137;DHT22;67767;45.636;11.756;2023-11-21T00:37:47;9.40;84.60
73137;DHT22;67767;45.636;11.756;2023-11-21T00:40:15;9.50;84.40
73137;DHT22;67767;45.636;11.756;2023-11-21T00:42:41;9.50;84.10
73137;DHT22;67767;45.636;11.756;2023-11-21T00:45:08;9.40;84.20
73137;DHT22;67767;45.636;11.756;2023-11-21T00:47:33;9.40;84.20
73137;DHT22;67767;45.636;11.756;2023-11-21T00:49:59;9.40;84.30
73137;DHT22;67767;45.636;11.756;2023-11-21T00:52:25;9.40;84.40
73137;DHT22;67767;45.636;11.756;2023-11-21T00:54:51;9.50;84.10
73137;DHT22;67767;45.636;11.756;2023-11-21T00:57:16;9.40;84.00
73137;DHT22;67767;45.636;11.756;2023-11-21T00:59:42;9.30;84.30
73137;DHT22;67767;45.636;11.756;2023-11-21T01:02:08;9.30;84.30
73137;DHT22;67767;45.636;11.756;2023-11-21T01:04:36;9.30;84.60
73137;DHT22;67767;45.636;11.756;2023-11-21T01:07:01;9.20;84.50
73137;DHT22;67767;45.636;11.756;2023-11-21T01:09:27;9.20;84.20
73137;DHT22;67767;45.636;11.756;2023-11-21T01:11:53;9.30;84.40
73137;DHT22;67767;45.636;11.756;2023-11-21T01:14:19;9.20;84.70
73137;DHT22;67767;45.636;11.756;2023-11-21T01:16:45;9.20;84.70
73137;DHT22;67767;45.636;11.756;2023-11-21T01:19:11;9.20;84.80
73137;DHT22;67767;45.636;11.756;2023-11-21T01:21:36;9.10;85.10
73137;DHT22;67767;45.636;11.756;2023-11-21T01:24:03;9.10;85.30
73137;DHT22;67767;45.636;11.756;2023-11-21T01:26:29;9.10;85.10
73137;DHT22;67767;45.636;11.756;2023-11-21T01:28:54;9.00;85.10
73137;DHT22;67767;45.636;11.756;2023-11-21T01:31:20;9.10;85.00
73137;DHT22;67767;45.636;11.756;2023-11-21T01:33:46;9.10;85.20
73137;DHT22;67767;45.636;11.756;2023-11-21T01:36:12;9.20;84.90
73137;DHT22;67767;45.636;11.756;2023-11-21T01:38:38;9.20;84.90
73137;DHT22;67767;45.636;11.756;2023-11-21T01:41:04;9.20;84.90
73137;DHT22;67767;45.636;11.756;2023-11-21T01:43:30;9.20;85.10
73137;DHT22;67767;45.636;11.756;2023-11-21T01:45:57;9.20;85.00
73137;DHT22;67767;45.636;11.756;2023-11-21T01:48:24;9.30;84.80
73137;DHT22;67767;45.636;11.756;2023-11-21T01:50:51;9.30;84.90
73137;DHT22;67767;45.636;11.756;2023-11-21T01:53:17;9.40;84.80
73137;DHT22;67767;45.636;11.756;2023-11-21T01:55:45;9.40;84.80
73137;DHT22;67767;45.636;11.756;2023-11-21T01:58:11;9.50;84.90
73137;DHT22;67767;45.636;11.756;2023-11-21T02:00:38;9.30;84.90
73137;DHT22;67767;45.636;11.756;2023-11-21T02:03:04;9.40;84.70
73137;DHT22;67767;45.636;11.756;2023-11-21T02:05:30;9.30;84.90
73137;DHT22;67767;45.636;11.756;2023-11-21T02:07:55;9.30;85.00
73137;DHT22;67767;45.636;11.756;2023-11-21T02:10:22;9.20;85.30
73137;DHT22;67767;45.636;11.756;2023-11-21T02:12:50;9.20;85.50
73137;DHT22;67767;45.636;11.756;2023-11-21T02:15:17;9.10;85.30
73137;DHT22;67767;45.636;11.756;2023-11-21T02:17:47;9.00;85.60
73137;DHT22;67767;45.636;11.756;2023-11-21T02:20:17;8.90;85.90
73137;DHT22;67767;45.636;11.756;2023-11-21T02:22:49;8.90;86.30
73137;DHT22;67767;45.636;11.756;2023-11-21T02:25:14;9.00;86.50
73137;DHT22;67767;45.636;11.756;2023-11-21T02:27:40;8.90;86.70
73137;DHT22;67767;45.636;11.756;2023-11-21T02:30:06;8.90;86.20
73137;DHT22;67767;45.636;11.756;2023-11-21T02:32:33;8.80;86.60
73137;DHT22;67767;45.636;11.756;2023-11-21T02:35:00;8.90;86.80
73137;DHT22;67767;45.636;11.756;2023-11-21T02:37:27;8.90;86.60
73137;DHT22;67767;45.636;11.756;2023-11-21T02:39:53;8.80;86.90
73137;DHT22;67767;45.636;11.756;2023-11-21T02:42:19;8.80;87.10
73137;DHT22;67767;45.636;11.756;2023-11-21T02:44:44;8.80;87.10
73137;DHT22;67767;45.636;11.756;2023-11-21T02:47:10;8.80;87.10
73137;DHT22;67767;45.636;11.756;2023-11-21T02:49:36;8.80;87.10
73137;DHT22;67767;45.636;11.756;2023-11-21T02:52:02;8.70;87.10
73137;DHT22;67767;45.636;11.756;2023-11-21T02:54:27;8.80;87.30
73137;DHT22;67767;45.636;11.756;2023-11-21T02:56:53;8.80;87.20
73137;DHT22;67767;45.636;11.756;2023-11-21T02:59:19;8.80;87.20
73137;DHT22;67767;45.636;11.756;2023-11-21T03:01:45;8.90;87.00
73137;DHT22;67767;45.636;11.756;2023-11-21T03:04:12;8.90;86.90
73137;DHT22;67767;45.636;11.756;2023-11-21T03:06:44;8.90;87.00
73137;DHT22;67767;45.636;11.756;2023-11-21T03:09:11;8.90;87.00
73137;DHT22;67767;45.636;11.756;2023-11-21T03:11:39;8.80;87.20
73137;DHT22;67767;45.636;11.756;2023-11-21T03:14:05;8.80;87.20
73137;DHT22;67767;45.636;11.756;2023-11-21T03:16:32;8.70;87.50
73137;DHT22;67767;45.636;11.756;2023-11-21T03:18:58;8.80;87.30
73137;DHT22;67767;45.636;11.756;2023-11-21T03:21:24;8.80;87.40
73137;DHT22;67767;45.636;11.756;2023-11-21T03:23:50;8.70;87.40
73137;DHT22;67767;45.636;11.756;2023-11-21T03:26:16;8.70;87.30
73137;DHT22;67767;45.636;11.756;2023-11-21T03:28:42;8.70;87.20
73137;DHT22;67767;45.636;11.756;2023-11-21T03:31:07;8.60;87.60
73137;DHT22;67767;45.636;11.756;2023-11-21T03:33:35;8.60;87.90
73137;DHT22;67767;45.636;11.756;2023-11-21T03:36:01;8.50;87.80
73137;DHT22;67767;45.636;11.756;2023-11-21T03:38:26;8.60;87.80
73137;DHT22;67767;45.636;11.756;2023-11-21T03:40:53;8.60;87.70
73137;DHT22;67767;45.636;11.756;2023-11-21T03:43:19;8.60;88.10
73137;DHT22;67767;45.636;11.756;2023-11-21T03:45:44;8.60;87.90
73137;DHT22;67767;45.636;11.756;2023-11-21T03:48:12;8.60;87.80
73137;DHT22;67767;45.636;11.756;2023-11-21T03:50:38;8.60;87.70
73137;DHT22;67767;45.636;11.756;2023-11-21T03:53:04;8.50;87.80
73137;DHT22;67767;45.636;11.756;2023-11-21T03:55:30;8.60;87.80
73137;DHT22;67767;45.636;11.756;2023-11-21T03:57:58;8.50;87.60
73137;DHT22;67767;45.636;11.756;2023-11-21T04:00:24;8.50;87.50
73137;DHT22;67767;45.636;11.756;2023-11-21T04:02:50;8.50;87.20
73137;DHT22;67767;45.636;11.756;2023-11-21T04:05:17;8.60;86.80
73137;DHT22;67767;45.636;11.756;2023-11-21T04:07:42;8.60;86.10
73137;DHT22;67767;45.636;11.756;2023-11-21T04:10:09;8.60;85.80
73137;DHT22;67767;45.636;11.756;2023-11-21T04:12:36;8.70;85.70
73137;DHT22;67767;45.636;11.756;2023-11-21T04:15:02;8.60;85.00
73137;DHT22;67767;45.636;11.756;2023-11-21T04:17:28;8.70;84.80
73137;DHT22;67767;45.636;11.756;2023-11-21T04:19:53;8.70;85.10
73137;DHT22;67767;45.636;11.756;2023-11-21T04:22:19;8.70;85.00
73137;DHT22;67767;45.636;11.756;2023-11-21T04:24:45;8.80;84.90
73137;DHT22;67767;45.636;11.756;2023-11-21T04:27:11;8.70;85.10
73137;DHT22;67767;45.636;11.756;2023-11-21T04:29:36;8.60;85.50
73137;DHT22;67767;45.636;11.756;2023-11-21T04:32:02;8.60;85.50
73137;DHT22;67767;45.636;11.756;2023-11-21T04:34:28;8.60;85.70
73137;DHT22;67767;45.636;11.756;2023-11-21T04:36:56;8.60;85.90
73137;DHT22;67767;45.636;11.756;2023-11-21T04:39:22;8.50;85.80
73137;DHT22;67767;45.636;11.756;2023-11-21T04:41:48;8.60;85.20
73137;DHT22;67767;45.636;11.756;2023-11-21T04:44:14;8.30;85.20
73137;DHT22;67767;45.636;11.756;2023-11-21T04:46:41;8.20;85.90
73137;DHT22;67767;45.636;11.756;2023-11-21T04:49:07;8.10;86.50
73137;DHT22;67767;45.636;11.756;2023-11-21T04:51:33;8.10;87.00
73137;DHT22;67767;45.636;11.756;2023-11-21T04:53:59;8.10;87.30
73137;DHT22;67767;45.636;11.756;2023-11-21T04:56:24;7.90;87.40
73137;DHT22;67767;45.636;11.756;2023-11-21T04:58:50;8.00;87.00
73137;DHT22;67767;45.636;11.756;2023-11-21T05:01:16;7.90;87.00
73137;DHT22;67767;45.636;11.756;2023-11-21T05:03:42;7.80;87.50
73137;DHT22;67767;45.636;11.756;2023-11-21T05:06:10;7.70;88.10
73137;DHT22;67767;45.636;11.756;2023-11-21T05:08:36;7.70;88.10
73137;DHT22;67767;45.636;11.756;2023-11-21T05:11:02;7.70;88.30
73137;DHT22;67767;45.636;11.756;2023-11-21T05:13:28;7.70;88.10
73137;DHT22;67767;45.636;11.756;2023-11-21T05:15:55;7.80;88.00
73137;DHT22;67767;45.636;11.756;2023-11-21T05:18:22;7.80;88.00
73137;DHT22;67767;45.636;11.756;2023-11-21T05:20:48;7.80;87.80
73137;DHT22;67767;45.636;11.756;2023-11-21T05:23:14;7.80;87.70
73137;DHT22;67767;45.636;11.756;2023-11-21T05:25:39;7.80;87.60
73137;DHT22;67767;45.636;11.756;2023-11-21T05:28:06;7.80;87.00
73137;DHT22;67767;45.636;11.756;2023-11-21T05:30:32;7.80;87.00
73137;DHT22;67767;45.636;11.756;2023-11-21T05:32:58;7.80;85.70
73137;DHT22;67767;45.636;11.756;2023-11-21T05:35:23;8.10;84.70
73137;DHT22;67767;45.636;11.756;2023-11-21T05:37:49;8.40;83.30
73137;DHT22;67767;45.636;11.756;2023-11-21T05:40:15;8.60;82.90
73137;DHT22;67767;45.636;11.756;2023-11-21T05:42:41;8.80;82.80
73137;DHT22;67767;45.636;11.756;2023-11-21T05:45:07;8.90;82.50
73137;DHT22;67767;45.636;11.756;2023-11-21T05:47:41;9.00;82.70
73137;DHT22;67767;45.636;11.756;2023-11-21T05:50:09;9.10;82.40
73137;DHT22;67767;45.636;11.756;2023-11-21T05:52:41;9.00;82.70
73137;DHT22;67767;45.636;11.756;2023-11-21T05:55:07;9.00;82.70
73137;DHT22;67767;45.636;11.756;2023-11-21T05:57:37;8.80;83.30
73137;DHT22;67767;45.636;11.756;2023-11-21T06:00:07;8.80;83.20
73137;DHT22;67767;45.636;11.756;2023-11-21T06:02:40;8.80;83.40
73137;DHT22;67767;45.636;11.756;2023-11-21T06:05:07;8.90;83.40
73137;DHT22;67767;45.636;11.756;2023-11-21T06:07:33;8.80;83.60
73137;DHT22;67767;45.636;11.756;2023-11-21T06:10:04;8.80;83.40
73137;DHT22;67767;45.636;11.756;2023-11-21T06:12:35;8.90;83.50
73137;DHT22;67767;45.636;11.756;2023-11-21T06:15:04;8.90;83.20
73137;DHT22;67767;45.636;11.756;2023-11-21T06:17:34;8.90;83.50
73137;DHT22;67767;45.636;11.756;2023-11-21T06:20:05;9.00;83.50
73137;DHT22;67767;45.636;11.756;2023-11-21T06:22:36;9.00;83.60
73137;DHT22;67767;45.636;11.756;2023-11-21T06:25:01;9.00;83.80
73137;DHT22;67767;45.636;11.756;2023-11-21T06:27:28;9.00;83.60
73137;DHT22;67767;45.636;11.756;2023-11-21T06:29:55;9.00;83.70
73137;DHT22;67767;45.636;11.756;2023-11-21T06:32:20;9.00;84.10
73137;DHT22;67767;45.636;11.756;2023-11-21T06:34:48;9.00;84.00
73137;DHT22;67767;45.636;11.756;2023-11-21T06:37:15;8.90;84.00
73137;DHT22;67767;45.636;11.756;2023-11-21T06:39:40;8.90;84.00
73137;DHT22;67767;45.636;11.756;2023-11-21T06:42:07;9.00;84.20
73137;DHT22;67767;45.636;11.756;2023-11-21T06:44:32;9.10;84.10
73137;DHT22;67767;45.636;11.756;2023-11-21T06:46:59;9.20;84.30
73137;DHT22;67767;45.636;11.756;2023-11-21T06:49:25;9.30;84.00
73137;DHT22;67767;45.636;11.756;2023-11-21T06:51:51;9.30;84.10
73137;DHT22;67767;45.636;11.756;2023-11-21T06:54:16;9.40;84.10
73137;DHT22;67767;45.636;11.756;2023-11-21T06:56:42;9.40;84.20
73137;DHT22;67767;45.636;11.756;2023-11-21T06:59:08;9.50;83.90
73137;DHT22;67767;45.636;11.756;2023-11-21T07:01:34;9.50;83.80
73137;DHT22;67767;45.636;11.756;2023-11-21T07:04:05;9.50;83.80
73137;DHT22;67767;45.636;11.756;2023-11-21T07:06:32;9.50;83.80
73137;DHT22;67767;45.636;11.756;2023-11-21T07:08:57;9.60;83.60
73137;DHT22;67767;45.636;11.756;2023-11-21T07:11:24;9.60;83.50
73137;DHT22;67767;45.636;11.756;2023-11-21T07:13:50;9.60;83.60
73137;DHT22;67767;45.636;11.756;2023-11-21T07:16:17;9.70;83.90
73137;DHT22;67767;45.636;11.756;2023-11-21T07:18:44;9.80;84.00
73137;DHT22;67767;45.636;11.756;2023-11-21T07:21:10;9.70;83.80
73137;DHT22;67767;45.636;11.756;2023-11-21T07:23:38;9.70;83.70
73137;DHT22;67767;45.636;11.756;2023-11-21T07:26:04;9.80;83.60
73137;DHT22;67767;45.636;11.756;2023-11-21T07:28:34;9.90;83.80
73137;DHT22;67767;45.636;11.756;2023-11-21T07:31:01;9.80;84.10
73137;DHT22;67767;45.636;11.756;2023-11-21T07:33:27;9.90;84.20
73137;DHT22;67767;45.636;11.756;2023-11-21T07:35:52;9.90;84.20
73137;DHT22;67767;45.636;11.756;2023-11-21T07:38:18;9.90;83.90
73137;DHT22;67767;45.636;11.756;2023-11-21T07:40:44;10.00;84.00
73137;DHT22;67767;45.636;11.756;2023-11-21T07:43:09;10.00;83.90
73137;DHT22;67767;45.636;11.756;2023-11-21T07:45:36;9.90;84.20
73137;DHT22;67767;45.636;11.756;2023-11-21T07:48:02;9.90;84.60
73137;DHT22;67767;45.636;11.756;2023-11-21T07:50:29;9.90;84.50
73137;DHT22;67767;45.636;11.756;2023-11-21T07:52:55;9.80;84.60
73137;DHT22;67767;45.636;11.756;2023-11-21T07:55:21;10.10;84.70
73137;DHT22;67767;45.636;11.756;2023-11-21T07:57:46;10.10;84.70
73137;DHT22;67767;45.636;11.756;2023-11-21T08:00:12;10.00;84.50
73137;DHT22;67767;45.636;11.756;2023-11-21T08:02:40;10.20;84.50
73137;DHT22;67767;45.636;11.756;2023-11-21T08:05:11;10.30;84.40
73137;DHT22;67767;45.636;11.756;2023-11-21T08:07:37;10.50;83.70
73137;DHT22;67767;45.636;11.756;2023-11-21T08:10:04;10.60;83.40
73137;DHT22;67767;45.636;11.756;2023-11-21T08:12:30;10.70;82.80
73137;DHT22;67767;45.636;11.756;2023-11-21T08:14:56;10.90;82.00
73137;DHT22;67767;45.636;11.756;2023-11-21T08:17:22;11.00;81.10
73137;DHT22;67767;45.636;11.756;2023-11-21T08:19:49;11.10;80.20
73137;DHT22;67767;45.636;11.756;2023-11-21T08:22:16;11.20;79.40
73137;DHT22;67767;45.636;11.756;2023-11-21T08:24:44;11.40;79.00
73137;DHT22;67767;45.636;11.756;2023-11-21T08:27:10;11.40;78.90
73137;DHT22;67767;45.636;11.756;2023-11-21T08:29:35;11.50;78.80
73137;DHT22;67767;45.636;11.756;2023-11-21T08:32:02;11.60;78.70
73137;DHT22;67767;45.636;11.756;2023-11-21T08:34:28;11.70;78.80
73137;DHT22;67767;45.636;11.756;2023-11-21T08:36:54;11.70;78.80
73137;DHT22;67767;45.636;11.756;2023-11-21T08:39:21;11.70;79.00
73137;DHT22;67767;45.636;11.756;2023-11-21T08:41:50;11.60;79.00
73137;DHT22;67767;45.636;11.756;2023-11-21T08:44:16;11.70;79.20
73137;DHT22;67767;45.636;11.756;2023-11-21T08:46:44;11.70;79.50
73137;DHT22;67767;45.636;11.756;2023-11-21T08:49:11;11.70;79.50
73137;DHT22;67767;45.636;11.756;2023-11-21T08:51:37;11.70;79.70
73137;DHT22;67767;45.636;11.756;2023-11-21T08:54:04;11.80;79.50
73137;DHT22;67767;45.636;11.756;2023-11-21T08:56:33;11.80;79.70
73137;DHT22;67767;45.636;11.756;2023-11-21T08:58:59;11.90;79.50
73137;DHT22;67767;45.636;11.756;2023-11-21T09:01:31;12.00;79.70
73137;DHT22;67767;45.636;11.756;2023-11-21T09:03:57;11.90;79.70
73137;DHT22;67767;45.636;11.756;2023-11-21T09:06:23;11.80;80.00
73137;DHT22;67767;45.636;11.756;2023-11-21T09:08:50;11.80;80.00
73137;DHT22;67767;45.636;11.756;2023-11-21T09:11:15;11.80;80.20
73137;DHT22;67767;45.636;11.756;2023-11-21T09:13:41;11.80;80.40
73137;DHT22;67767;45.636;11.756;2023-11-21T09:16:07;11.90;80.10
73137;DHT22;67767;45.636;11.756;2023-11-21T09:18:33;11.90;80.30
73137;DHT22;67767;45.636;11.756;2023-11-21T09:20:58;11.90;80.60
73137;DHT22;67767;45.636;11.756;2023-11-21T09:23:24;11.90;80.20
73137;DHT22;67767;45.636;11.756;2023-11-21T09:25:50;11.80;80.30
73137;DHT22;67767;45.636;11.756;2023-11-21T09:28:17;11.90;80.40
73137;DHT22;67767;45.636;11.756;2023-11-21T09:30:43;12.00;80.50
73137;DHT22;67767;45.636;11.756;2023-11-21T09:33:09;11.90;80.30
73137;DHT22;67767;45.636;11.756;2023-11-21T09:35:38;11.90;80.70
73137;DHT22;67767;45.636;11.756;2023-11-21T09:38:04;12.00;80.60
73137;DHT22;67767;45.636;11.756;2023-11-21T09:40:36;12.00;80.50
73137;DHT22;67767;45.636;11.756;2023-11-21T09:43:17;11.90;80.70
73137;DHT22;67767;45.636;11.756;2023-11-21T09:45:48;12.00;80.80
73137;DHT22;67767;45.636;11.756;2023-11-21T09:48:17;12.00;80.90
73137;DHT22;67767;45.636;11.756;2023-11-21T09:50:43;12.00;81.20
73137;DHT22;67767;45.636;11.756;2023-11-21T09:53:22;12.00;81.40
73137;DHT22;67767;45.636;11.756;2023-11-21T09:55:53;12.00;81.60
73137;DHT22;67767;45.636;11.756;2023-11-21T09:58:20;11.90;82.00
73137;DHT22;67767;45.636;11.756;2023-11-21T10:00:49;11.70;82.10
73137;DHT22;67767;45.636;11.756;2023-11-21T10:03:15;11.80;82.50
73137;DHT22;67767;45.636;11.756;2023-11-21T10:05:42;11.70;82.70
73137;DHT22;67767;45.636;11.756;2023-11-21T10:08:10;11.70;83.10
73137;DHT22;67767;45.636;11.756;2023-11-21T10:10:43;11.70;83.00
73137;DHT22;67767;45.636;11.756;2023-11-21T10:13:14;11.70;82.50
73137;DHT22;67767;45.636;11.756;2023-11-21T10:15:42;11.70;82.30
73137;DHT22;67767;45.636;11.756;2023-11-21T10:18:14;11.90;82.40
73137;DHT22;67767;45.636;11.756;2023-11-21T10:20:44;12.00;82.30
73137;DHT22;67767;45.636;11.756;2023-11-21T10:23:18;12.00;82.10
73137;DHT22;67767;45.636;11.756;2023-11-21T10:25:44;12.10;82.30
73137;DHT22;67767;45.636;11.756;2023-11-21T10:28:10;11.90;82.70
73137;DHT22;67767;45.636;11.756;2023-11-21T10:30:38;11.90;83.20
73137;DHT22;67767;45.636;11.756;2023-11-21T10:33:05;11.70;83.20
73137;DHT22;67767;45.636;11.756;2023-11-21T10:35:44;11.80;83.60
73137;DHT22;67767;45.636;11.756;2023-11-21T10:38:13;11.90;83.50
73137;DHT22;67767;45.636;11.756;2023-11-21T10:40:40;12.00;83.40
73137;DHT22;67767;45.636;11.756;2023-11-21T10:43:08;12.10;83.30
73137;DHT22;67767;45.636;11.756;2023-11-21T10:45:38;12.10;83.40
73137;DHT22;67767;45.636;11.756;2023-11-21T10:48:09;12.20;83.50
73137;DHT22;67767;45.636;11.756;2023-11-21T10:50:37;12.20;83.50
73137;DHT22;67767;45.636;11.756;2023-11-21T10:53:03;12.20;83.50
73137;DHT22;67767;45.636;11.756;2023-11-21T10:55:30;12.30;83.20
73137;DHT22;67767;45.636;11.756;2023-11-21T10:57:59;12.50;83.30
73137;DHT22;67767;45.636;11.756;2023-11-21T11:00:27;12.60;83.10
73137;DHT22;67767;45.636;11.756;2023-11-21T11:02:53;12.80;81.80
73137;DHT22;67767;45.636;11.756;2023-11-21T11:05:28;12.90;81.40
73137;DHT22;67767;45.636;11.756;2023-11-21T11:08:14;13.00;81.30
73137;DHT22;67767;45.636;11.756;2023-11-21T11:10:47;13.20;81.20
73137;DHT22;67767;45.636;11.756;2023-11-21T11:13:16;13.50;80.80
73137;DHT22;67767;45.636;11.756;2023-11-21T11:15:42;13.90;80.50
73137;DHT22;67767;45.636;11.756;2023-11-21T11:18:10;14.30;80.20
73137;DHT22;67767;45.636;11.756;2023-11-21T11:20:37;14.60;79.70
73137;DHT22;67767;45.636;11.756;2023-11-21T11:32:53;15.00;79.50
73137;DHT22;67767;45.636;11.756;2023-11-21T11:35:55;15.10;79.20
73137;DHT22;67767;45.636;11.756;2023-11-21T11:38:22;15.10;79.00
73137;DHT22;67767;45.636;11.756;2023-11-21T11:40:53;15.10;79.00
73137;DHT22;67767;45.636;11.756;2023-11-21T11:43:26;15.10;79.10
73137;DHT22;67767;45.636;11.756;2023-11-21T11:45:56;15.10;79.20
73137;DHT22;67767;45.636;11.756;2023-11-21T11:48:22;15.10;79.20
73137;DHT22;67767;45.636;11.756;2023-11-21T11:51:05;15.00;79.20
73137;DHT22;67767;45.636;11.756;2023-11-21T11:53:46;14.90;79.20
73137;DHT22;67767;45.636;11.756;2023-11-21T11:59:02;15.20;79.00
73137;DHT22;67767;45.636;11.756;2023-11-21T12:01:30;15.00;79.00
73137;DHT22;67767;45.636;11.756;2023-11-21T12:06:42;15.00;79.10
73137;DHT22;67767;45.636;11.756;2023-11-21T12:09:21;14.90;79.20
73137;DHT22;67767;45.636;11.756;2023-11-21T12:11:52;15.00;79.20
73137;DHT22;67767;45.636;11.756;2023-11-21T12:14:20;15.00;78.90
73137;DHT22;67767;45.636;11.756;2023-11-21T12:16:46;14.90;79.10
73137;DHT22;67767;45.636;11.756;2023-11-21T12:19:13;14.80;79.10
73137;DHT22;67767;45.636;11.756;2023-11-21T12:21:39;14.90;79.20
73137;DHT22;67767;45.636;11.756;2023-11-21T12:24:09;14.70;79.10
73137;DHT22;67767;45.636;11.756;2023-11-21T12:26:35;14.60;79.10
73137;DHT22;67767;45.636;11.756;2023-11-21T12:29:04;14.60;79.40
73137;DHT22;67767;45.636;11.756;2023-11-21T12:31:30;14.30;79.20
73137;DHT22;67767;45.636;11.756;2023-11-21T12:33:56;14.20;79.30
73137;DHT22;67767;45.636;11.756;2023-11-21T12:36:23;14.10;79.30
73137;DHT22;67767;45.636;11.756;2023-11-21T12:38:49;14.10;79.50
73137;DHT22;67767;45.636;11.756;2023-11-21T12:41:16;14.10;79.60
73137;DHT22;67767;45.636;11.756;2023-11-21T12:43:42;14.00;79.70
73137;DHT22;67767;45.636;11.756;2023-11-21T12:46:10;14.00;80.00
73137;DHT22;67767;45.636;11.756;2023-11-21T12:48:39;14.00;79.90
73137;DHT22;67767;45.636;11.756;2023-11-21T12:51:10;14.00;80.20
73137;DHT22;67767;45.636;11.756;2023-11-21T12:53:45;14.00;80.10
73137;DHT22;67767;45.636;11.756;2023-11-21T12:56:12;13.90;80.20
73137;DHT22;67767;45.636;11.756;2023-11-21T12:58:39;14.00;80.30
73137;DHT22;67767;45.636;11.756;2023-11-21T13:01:08;13.80;80.50
73137;DHT22;67767;45.636;11.756;2023-11-21T13:03:40;13.80;81.00
73137;DHT22;67767;45.636;11.756;2023-11-21T13:06:08;13.80;80.80
73137;DHT22;67767;45.636;11.756;2023-11-21T13:08:34;13.80;81.10
73137;DHT22;67767;45.636;11.756;2023-11-21T13:10:59;13.70;81.30
73137;DHT22;67767;45.636;11.756;2023-11-21T13:13:28;13.60;81.60
73137;DHT22;67767;45.636;11.756;2023-11-21T13:15:55;13.60;81.90
73137;DHT22;67767;45.636;11.756;2023-11-21T13:18:24;13.50;82.00
73137;DHT22;67767;45.636;11.756;2023-11-21T13:20:53;13.30;82.50
73137;DHT22;67767;45.636;11.756;2023-11-21T13:23:20;13.40;82.60
73137;DHT22;67767;45.636;11.756;2023-11-21T13:25:46;13.40;82.90
73137;DHT22;67767;45.636;11.756;2023-11-21T13:28:13;13.40;83.10
73137;DHT22;67767;45.636;11.756;2023-11-21T13:30:41;13.40;83.10
73137;DHT22;67767;45.636;11.756;2023-11-21T13:33:08;13.40;83.40
73137;DHT22;67767;45.636;11.756;2023-11-21T13:35:37;13.50;83.50
73137;DHT22;67767;45.636;11.756;2023-11-21T13:38:11;13.50;83.60
73137;DHT22;67767;45.636;11.756;2023-11-21T13:40:41;13.50;83.70
73137;DHT22;67767;45.636;11.756;2023-11-21T13:43:12;13.50;84.30
73137;DHT22;67767;45.636;11.756;2023-11-21T13:45:42;13.50;84.30
73137;DHT22;67767;45.636;11.756;2023-11-21T13:48:09;13.40;84.60
73137;DHT22;67767;45.636;11.756;2023-11-21T13:50:45;13.50;84.40
73137;DHT22;67767;45.636;11.756;2023-11-21T13:53:34;13.60;84.40
73137;DHT22;67767;45.636;11.756;2023-11-21T13:56:03;13.60;84.60
73137;DHT22;67767;45.636;11.756;2023-11-21T13:58:29;13.60;84.50
73137;DHT22;67767;45.636;11.756;2023-11-21T14:01:15;13.70;84.40
73137;DHT22;67767;45.636;11.756;2023-11-21T14:04:13;13.70;84.30
73137;DHT22;67767;45.636;11.756;2023-11-21T14:06:51;13.60;84.10
73137;DHT22;67767;45.636;11.756;2023-11-21T14:09:26;13.60;84.40
73137;DHT22;67767;45.636;11.756;2023-11-21T14:11:58;13.60;84.80
73137;DHT22;67767;45.636;11.756;2023-11-21T14:14:26;13.70;84.60
73137;DHT22;67767;45.636;11.756;2023-11-21T14:16:55;13.80;84.40
73137;DHT22;67767;45.636;11.756;2023-11-21T14:19:22;13.70;84.20
73137;DHT22;67767;45.636;11.756;2023-11-21T14:21:52;13.70;84.50
73137;DHT22;67767;45.636;11.756;2023-11-21T14:24:18;13.60;84.40
73137;DHT22;67767;45.636;11.756;2023-11-21T14:26:45;13.60;84.20
73137;DHT22;67767;45.636;11.756;2023-11-21T14:29:12;13.50;84.40
73137;DHT22;67767;45.636;11.756;2023-11-21T14:31:40;13.50;85.00
73137;DHT22;67767;45.636;11.756;2023-11-21T14:34:07;13.60;84.70
73137;DHT22;67767;45.636;11.756;2023-11-21T14:36:34;13.50;84.60
73137;DHT22;67767;45.636;11.756;2023-11-21T14:39:00;13.60;84.70
73137;DHT22;67767;45.636;11.756;2023-11-21T14:41:25;13.60;84.60
73137;DHT22;67767;45.636;11.756;2023-11-21T14:43:53;13.60;84.30
73137;DHT22;67767;45.636;11.756;2023-11-21T14:46:19;13.60;84.50
73137;DHT22;67767;45.636;11.756;2023-11-21T14:48:45;13.70;84.50
73137;DHT22;67767;45.636;11.756;2023-11-21T14:51:25;13.70;84.30
73137;DHT22;67767;45.636;11.756;2023-11-21T14:53:50;13.70;84.20
73137;DHT22;67767;45.636;11.756;2023-11-21T14:56:23;13.60;84.30
73137;DHT22;67767;45.636;11.756;2023-11-21T14:59:00;13.60;84.20
73137;DHT22;67767;45.636;11.756;2023-11-21T15:01:32;13.50;84.20
73137;DHT22;67767;45.636;11.756;2023-11-21T15:04:10;13.50;84.00
73137;DHT22;67767;45.636;11.756;2023-11-21T15:06:53;13.50;84.20
73137;DHT22;67767;45.636;11.756;2023-11-21T15:09:22;13.50;84.10
73137;DHT22;67767;45.636;11.756;2023-11-21T15:11:48;13.50;84.10
73137;DHT22;67767;45.636;11.756;2023-11-21T15:14:14;13.50;84.00
73137;DHT22;67767;45.636;11.756;2023-11-21T15:16:46;13.50;84.30
73137;DHT22;67767;45.636;11.756;2023-11-21T15:19:16;13.40;84.10
73137;DHT22;67767;45.636;11.756;2023-11-21T15:21:44;13.50;84.20
73137;DHT22;67767;45.636;11.756;2023-11-21T15:24:12;13.50;84.20
73137;DHT22;67767;45.636;11.756;2023-11-21T15:26:37;13.40;84.20
73137;DHT22;67767;45.636;11.756;2023-11-21T15:29:04;13.40;84.10
73137;DHT22;67767;45.636;11.756;2023-11-21T15:31:30;13.40;84.10
73137;DHT22;67767;45.636;11.756;2023-11-21T15:33:56;13.30;84.10
73137;DHT22;67767;45.636;11.756;2023-11-21T15:36:26;13.30;83.90
73137;DHT22;67767;45.636;11.756;2023-11-21T15:38:52;13.30;83.80
73137;DHT22;67767;45.636;11.756;2023-11-21T15:41:19;13.30;83.80